Portada
METAR-TAF:

METAR-TAF

Aeropuertos :

Ciudad de Kuwait, Kuwait

Aeropuerto Internacional de Kuwait

latitud: 29-13N, longitud: 047-59E, altitud: 55 m

Observación

El informe se hizo hace 16 minutos, a las 23:00 UTC
Viento calma
Temperatura 25°C
Humedad 69%
Presión 1006 hPa
Visibilidad 10 km o más
sin nubes por debajo de 1500 m y sin presencia de cumulonimbus.

METAR: OKBK 212300Z 00000KT CAVOK 25/19 Q1006 NOSIG

Hora: 02:16 (23:16 UTC)

Pronóstico

El informe se hizo hace 6 horas y 31 minutos, a las 16:45 UTC
Pronóstico válido del 21 a las 18 UTC al 22 a las 24 UTC
Viento 8 kt del sureste con ráfagas de 18 kt
Visibilidad: 6000 m
Temporalmente
del 21 a las 18 UTC al 22 a las 03 UTC
Viento 3 kt con dirección variable
Visibilidad: 4000 m
calima

TAF: OKBK 211645Z 2118/2224 13008G18KT 6000 NSC TEMPO 2118/2203 VRB03KT 4000 HZ

Observaciones y pronósticos meteorológicos de más de 4000 aeropuertos (mensajes METAR y TAF).

Los puntos amarillos y rojos representan las estaciones disponibles.

Ponga el ratón en el punto deseado para ver el nombre de la estación.

Haga clic para ver las observaciones y los pronósticos meteorológicos.

Para cambiar el mapa : haga clic en los botones verdes con una cruz de color negro para hacer un zoom, en el botón verde con un guión para alejar o en las flechas verdes para mapas adyacentes.


METAR-TAF: